sensor_id;sensor_type;location;lat;lon;timestamp;temperature;humidity
22813;DHT22;11573;51.334;3.244;2023-09-30T00:01:09;13.70;99.90
22813;DHT22;11573;51.334;3.244;2023-09-30T00:03:37;13.70;99.90
22813;DHT22;11573;51.334;3.244;2023-09-30T00:06:04;13.70;99.90
22813;DHT22;11573;51.334;3.244;2023-09-30T00:08:31;13.60;99.90
22813;DHT22;11573;51.334;3.244;2023-09-30T00:10:58;13.50;99.90
22813;DHT22;11573;51.334;3.244;2023-09-30T00:13:26;13.50;99.90
22813;DHT22;11573;51.334;3.244;2023-09-30T00:15:53;13.50;99.90
22813;DHT22;11573;51.334;3.244;2023-09-30T00:18:20;13.40;99.90
22813;DHT22;11573;51.334;3.244;2023-09-30T00:20:47;13.40;99.90
22813;DHT22;11573;51.334;3.244;2023-09-30T00:23:15;13.40;99.90
22813;DHT22;11573;51.334;3.244;2023-09-30T00:25:42;13.40;99.90
22813;DHT22;11573;51.334;3.244;2023-09-30T00:28:09;13.30;99.90
22813;DHT22;11573;51.334;3.244;2023-09-30T00:30:35;13.30;99.90
22813;DHT22;11573;51.334;3.244;2023-09-30T00:33:03;13.20;99.90
22813;DHT22;11573;51.334;3.244;2023-09-30T00:35:35;13.20;99.90
22813;DHT22;11573;51.334;3.244;2023-09-30T00:38:02;13.20;99.90
22813;DHT22;11573;51.334;3.244;2023-09-30T00:40:28;13.10;99.90
22813;DHT22;11573;51.334;3.244;2023-09-30T00:42:58;13.20;99.90
22813;DHT22;11573;51.334;3.244;2023-09-30T00:45:25;13.20;99.90
22813;DHT22;11573;51.334;3.244;2023-09-30T00:47:52;13.20;99.90
22813;DHT22;11573;51.334;3.244;2023-09-30T00:50:22;13.20;99.90
22813;DHT22;11573;51.334;3.244;2023-09-30T00:52:50;13.10;99.90
22813;DHT22;11573;51.334;3.244;2023-09-30T00:55:17;13.10;99.90
22813;DHT22;11573;51.334;3.244;2023-09-30T00:57:46;13.20;99.90
22813;DHT22;11573;51.334;3.244;2023-09-30T01:00:14;13.20;99.90
22813;DHT22;11573;51.334;3.244;2023-09-30T01:02:41;13.10;99.90
22813;DHT22;11573;51.334;3.244;2023-09-30T01:05:09;13.20;99.90
22813;DHT22;11573;51.334;3.244;2023-09-30T01:07:36;13.10;99.90
22813;DHT22;11573;51.334;3.244;2023-09-30T01:10:04;13.20;99.90
22813;DHT22;11573;51.334;3.244;2023-09-30T01:12:31;13.20;99.90
22813;DHT22;11573;51.334;3.244;2023-09-30T01:14:59;13.20;99.90
22813;DHT22;11573;51.334;3.244;2023-09-30T01:17:34;13.20;99.90
22813;DHT22;11573;51.334;3.244;2023-09-30T01:20:01;13.20;99.90
22813;DHT22;11573;51.334;3.244;2023-09-30T01:22:33;13.20;99.90
22813;DHT22;11573;51.334;3.244;2023-09-30T01:24:59;13.10;99.90
22813;DHT22;11573;51.334;3.244;2023-09-30T01:27:26;13.10;99.90
22813;DHT22;11573;51.334;3.244;2023-09-30T01:29:53;13.00;99.90
22813;DHT22;11573;51.334;3.244;2023-09-30T01:32:20;13.00;99.90
22813;DHT22;11573;51.334;3.244;2023-09-30T01:34:48;13.00;99.90
22813;DHT22;11573;51.334;3.244;2023-09-30T01:37:15;13.00;99.90
22813;DHT22;11573;51.334;3.244;2023-09-30T01:39:42;13.10;99.90
22813;DHT22;11573;51.334;3.244;2023-09-30T01:42:10;13.10;99.90
22813;DHT22;11573;51.334;3.244;2023-09-30T01:44:37;13.10;99.90
22813;DHT22;11573;51.334;3.244;2023-09-30T01:47:04;13.20;99.90
22813;DHT22;11573;51.334;3.244;2023-09-30T01:49:31;13.20;99.90
22813;DHT22;11573;51.334;3.244;2023-09-30T01:51:58;13.20;99.90
22813;DHT22;11573;51.334;3.244;2023-09-30T01:54:25;13.30;99.90
22813;DHT22;11573;51.334;3.244;2023-09-30T01:56:52;13.30;99.90
22813;DHT22;11573;51.334;3.244;2023-09-30T01:59:19;13.30;99.90
22813;DHT22;11573;51.334;3.244;2023-09-30T02:01:47;13.30;99.90
22813;DHT22;11573;51.334;3.244;2023-09-30T02:04:16;13.30;99.90
22813;DHT22;11573;51.334;3.244;2023-09-30T02:06:44;13.20;99.90
22813;DHT22;11573;51.334;3.244;2023-09-30T02:09:11;13.20;99.90
22813;DHT22;11573;51.334;3.244;2023-09-30T02:11:39;13.10;99.90
22813;DHT22;11573;51.334;3.244;2023-09-30T02:14:09;13.00;99.90
22813;DHT22;11573;51.334;3.244;2023-09-30T02:16:39;13.10;99.90
22813;DHT22;11573;51.334;3.244;2023-09-30T02:19:06;13.00;99.90
22813;DHT22;11573;51.334;3.244;2023-09-30T02:21:33;13.00;99.90
22813;DHT22;11573;51.334;3.244;2023-09-30T02:24:01;12.90;99.90
22813;DHT22;11573;51.334;3.244;2023-09-30T02:26:29;12.90;99.90
22813;DHT22;11573;51.334;3.244;2023-09-30T02:28:56;12.80;99.90
22813;DHT22;11573;51.334;3.244;2023-09-30T02:31:23;12.80;99.90
22813;DHT22;11573;51.334;3.244;2023-09-30T02:33:50;12.70;99.90
22813;DHT22;11573;51.334;3.244;2023-09-30T02:36:18;12.60;99.90
22813;DHT22;11573;51.334;3.244;2023-09-30T02:38:45;12.70;99.90
22813;DHT22;11573;51.334;3.244;2023-09-30T02:41:14;12.70;99.90
22813;DHT22;11573;51.334;3.244;2023-09-30T02:43:42;12.80;99.90
22813;DHT22;11573;51.334;3.244;2023-09-30T02:46:09;12.70;99.90
22813;DHT22;11573;51.334;3.244;2023-09-30T02:48:36;12.70;99.90
22813;DHT22;11573;51.334;3.244;2023-09-30T02:51:03;12.60;99.90
22813;DHT22;11573;51.334;3.244;2023-09-30T02:53:30;12.50;99.90
22813;DHT22;11573;51.334;3.244;2023-09-30T02:55:58;12.40;99.90
22813;DHT22;11573;51.334;3.244;2023-09-30T02:58:26;12.30;99.90
22813;DHT22;11573;51.334;3.244;2023-09-30T03:00:54;12.30;99.90
22813;DHT22;11573;51.334;3.244;2023-09-30T03:03:21;12.30;99.90
22813;DHT22;11573;51.334;3.244;2023-09-30T03:05:49;12.20;99.90
22813;DHT22;11573;51.334;3.244;2023-09-30T03:08:16;12.10;99.90
22813;DHT22;11573;51.334;3.244;2023-09-30T03:10:43;12.10;99.90
22813;DHT22;11573;51.334;3.244;2023-09-30T03:13:10;12.00;99.90
22813;DHT22;11573;51.334;3.244;2023-09-30T03:15:37;12.00;99.90
22813;DHT22;11573;51.334;3.244;2023-09-30T03:18:05;12.00;99.90
22813;DHT22;11573;51.334;3.244;2023-09-30T03:20:32;12.00;99.90
22813;DHT22;11573;51.334;3.244;2023-09-30T03:22:59;11.90;99.90
22813;DHT22;11573;51.334;3.244;2023-09-30T03:25:26;11.80;99.90
22813;DHT22;11573;51.334;3.244;2023-09-30T03:27:54;11.80;99.90
22813;DHT22;11573;51.334;3.244;2023-09-30T03:30:21;11.70;99.90
22813;DHT22;11573;51.334;3.244;2023-09-30T03:32:48;11.60;99.90
22813;DHT22;11573;51.334;3.244;2023-09-30T03:35:16;11.60;99.90
22813;DHT22;11573;51.334;3.244;2023-09-30T03:37:46;11.50;99.90
22813;DHT22;11573;51.334;3.244;2023-09-30T03:40:14;11.50;99.90
22813;DHT22;11573;51.334;3.244;2023-09-30T03:42:47;11.40;99.90
22813;DHT22;11573;51.334;3.244;2023-09-30T03:45:17;11.30;99.90
22813;DHT22;11573;51.334;3.244;2023-09-30T03:47:45;11.30;99.90
22813;DHT22;11573;51.334;3.244;2023-09-30T03:50:15;11.10;99.90
22813;DHT22;11573;51.334;3.244;2023-09-30T03:52:43;11.10;99.90
22813;DHT22;11573;51.334;3.244;2023-09-30T03:55:16;11.00;99.90
22813;DHT22;11573;51.334;3.244;2023-09-30T03:57:48;11.00;99.90
22813;DHT22;11573;51.334;3.244;2023-09-30T04:00:16;10.90;99.90
22813;DHT22;11573;51.334;3.244;2023-09-30T04:02:46;10.90;99.90
22813;DHT22;11573;51.334;3.244;2023-09-30T04:05:20;10.90;99.90
22813;DHT22;11573;51.334;3.244;2023-09-30T04:07:50;10.80;99.90
22813;DHT22;11573;51.334;3.244;2023-09-30T04:10:18;10.80;99.90
22813;DHT22;11573;51.334;3.244;2023-09-30T04:12:48;10.80;99.90
22813;DHT22;11573;51.334;3.244;2023-09-30T04:15:15;10.70;99.90
22813;DHT22;11573;51.334;3.244;2023-09-30T04:17:42;10.70;99.90
22813;DHT22;11573;51.334;3.244;2023-09-30T04:20:09;10.60;99.90
22813;DHT22;11573;51.334;3.244;2023-09-30T04:22:38;10.60;99.90
22813;DHT22;11573;51.334;3.244;2023-09-30T04:25:06;10.60;99.90
22813;DHT22;11573;51.334;3.244;2023-09-30T04:27:36;10.60;99.90
22813;DHT22;11573;51.334;3.244;2023-09-30T04:30:04;10.60;99.90
22813;DHT22;11573;51.334;3.244;2023-09-30T04:32:36;10.50;99.90
22813;DHT22;11573;51.334;3.244;2023-09-30T04:35:04;10.50;99.90
22813;DHT22;11573;51.334;3.244;2023-09-30T04:37:31;10.40;99.90
22813;DHT22;11573;51.334;3.244;2023-09-30T04:39:58;10.40;99.90
22813;DHT22;11573;51.334;3.244;2023-09-30T04:42:25;10.40;99.90
22813;DHT22;11573;51.334;3.244;2023-09-30T04:44:53;10.30;99.90
22813;DHT22;11573;51.334;3.244;2023-09-30T04:47:22;10.30;99.90
22813;DHT22;11573;51.334;3.244;2023-09-30T04:49:50;10.30;99.90
22813;DHT22;11573;51.334;3.244;2023-09-30T04:52:18;10.30;99.90
22813;DHT22;11573;51.334;3.244;2023-09-30T04:54:45;10.20;99.90
22813;DHT22;11573;51.334;3.244;2023-09-30T04:57:13;10.30;99.90
22813;DHT22;11573;51.334;3.244;2023-09-30T04:59:39;10.30;99.90
22813;DHT22;11573;51.334;3.244;2023-09-30T05:02:06;10.30;99.90
22813;DHT22;11573;51.334;3.244;2023-09-30T05:04:33;10.30;99.90
22813;DHT22;11573;51.334;3.244;2023-09-30T05:07:01;10.30;99.90
22813;DHT22;11573;51.334;3.244;2023-09-30T05:09:27;10.30;99.90
22813;DHT22;11573;51.334;3.244;2023-09-30T05:11:55;10.20;99.90
22813;DHT22;11573;51.334;3.244;2023-09-30T05:14:22;10.20;99.90
22813;DHT22;11573;51.334;3.244;2023-09-30T05:16:49;10.20;99.90
22813;DHT22;11573;51.334;3.244;2023-09-30T05:19:16;10.20;99.90
22813;DHT22;11573;51.334;3.244;2023-09-30T05:21:43;10.20;99.90
22813;DHT22;11573;51.334;3.244;2023-09-30T05:24:11;10.20;99.90
22813;DHT22;11573;51.334;3.244;2023-09-30T05:26:38;10.20;99.90
22813;DHT22;11573;51.334;3.244;2023-09-30T05:29:04;10.20;99.90
22813;DHT22;11573;51.334;3.244;2023-09-30T05:31:32;10.20;99.90
22813;DHT22;11573;51.334;3.244;2023-09-30T05:33:59;10.20;99.90
22813;DHT22;11573;51.334;3.244;2023-09-30T05:36:27;10.20;99.90
22813;DHT22;11573;51.334;3.244;2023-09-30T05:38:54;10.10;99.90
22813;DHT22;11573;51.334;3.244;2023-09-30T05:41:22;10.10;99.90
22813;DHT22;11573;51.334;3.244;2023-09-30T05:43:49;10.20;99.90
22813;DHT22;11573;51.334;3.244;2023-09-30T05:46:16;10.10;99.90
22813;DHT22;11573;51.334;3.244;2023-09-30T05:48:43;10.10;99.90
22813;DHT22;11573;51.334;3.244;2023-09-30T05:51:10;10.00;99.90
22813;DHT22;11573;51.334;3.244;2023-09-30T05:53:41;10.00;99.90
22813;DHT22;11573;51.334;3.244;2023-09-30T05:56:08;10.00;99.90
22813;DHT22;11573;51.334;3.244;2023-09-30T05:58:38;9.90;99.90
22813;DHT22;11573;51.334;3.244;2023-09-30T06:01:08;9.90;99.90
22813;DHT22;11573;51.334;3.244;2023-09-30T06:03:39;9.90;99.90
22813;DHT22;11573;51.334;3.244;2023-09-30T06:06:13;10.00;99.90
22813;DHT22;11573;51.334;3.244;2023-09-30T06:08:43;10.10;99.90
22813;DHT22;11573;51.334;3.244;2023-09-30T06:11:19;10.10;99.90
22813;DHT22;11573;51.334;3.244;2023-09-30T06:13:48;10.20;99.90
22813;DHT22;11573;51.334;3.244;2023-09-30T06:16:15;10.20;99.90
22813;DHT22;11573;51.334;3.244;2023-09-30T06:18:42;10.30;99.90
22813;DHT22;11573;51.334;3.244;2023-09-30T06:21:13;10.30;99.90
22813;DHT22;11573;51.334;3.244;2023-09-30T06:23:41;10.30;99.90
22813;DHT22;11573;51.334;3.244;2023-09-30T06:26:09;10.40;99.90
22813;DHT22;11573;51.334;3.244;2023-09-30T06:28:36;10.50;99.90
22813;DHT22;11573;51.334;3.244;2023-09-30T06:31:08;10.50;99.90
22813;DHT22;11573;51.334;3.244;2023-09-30T06:33:36;10.70;99.90
22813;DHT22;11573;51.334;3.244;2023-09-30T06:36:09;10.80;99.90
22813;DHT22;11573;51.334;3.244;2023-09-30T06:38:37;10.90;99.90
22813;DHT22;11573;51.334;3.244;2023-09-30T06:41:08;11.10;99.90
22813;DHT22;11573;51.334;3.244;2023-09-30T06:43:35;11.30;99.90
22813;DHT22;11573;51.334;3.244;2023-09-30T06:46:06;11.50;99.90
22813;DHT22;11573;51.334;3.244;2023-09-30T06:48:37;11.70;99.90
22813;DHT22;11573;51.334;3.244;2023-09-30T06:51:04;11.80;99.90
22813;DHT22;11573;51.334;3.244;2023-09-30T06:53:31;11.90;99.90
22813;DHT22;11573;51.334;3.244;2023-09-30T06:55:59;12.10;99.90
22813;DHT22;11573;51.334;3.244;2023-09-30T06:58:26;12.20;99.90
22813;DHT22;11573;51.334;3.244;2023-09-30T07:00:53;12.30;99.90
22813;DHT22;11573;51.334;3.244;2023-09-30T07:03:20;12.40;99.90
22813;DHT22;11573;51.334;3.244;2023-09-30T07:05:52;12.40;99.90
22813;DHT22;11573;51.334;3.244;2023-09-30T07:08:21;12.50;99.90
22813;DHT22;11573;51.334;3.244;2023-09-30T07:10:48;12.60;99.90
22813;DHT22;11573;51.334;3.244;2023-09-30T07:13:19;12.60;99.90
22813;DHT22;11573;51.334;3.244;2023-09-30T07:15:47;12.70;99.90
22813;DHT22;11573;51.334;3.244;2023-09-30T07:18:14;12.90;99.90
22813;DHT22;11573;51.334;3.244;2023-09-30T07:20:41;13.10;99.90
22813;DHT22;11573;51.334;3.244;2023-09-30T07:23:08;13.20;99.90
22813;DHT22;11573;51.334;3.244;2023-09-30T07:25:46;13.30;99.90
22813;DHT22;11573;51.334;3.244;2023-09-30T07:28:14;13.50;99.90
22813;DHT22;11573;51.334;3.244;2023-09-30T07:30:41;13.70;99.90
22813;DHT22;11573;51.334;3.244;2023-09-30T07:33:08;13.70;99.90
22813;DHT22;11573;51.334;3.244;2023-09-30T07:35:37;13.80;99.90
22813;DHT22;11573;51.334;3.244;2023-09-30T07:38:06;13.80;99.90
22813;DHT22;11573;51.334;3.244;2023-09-30T07:40:33;14.00;99.90
22813;DHT22;11573;51.334;3.244;2023-09-30T07:43:00;14.30;99.90
22813;DHT22;11573;51.334;3.244;2023-09-30T07:45:27;14.30;99.90
22813;DHT22;11573;51.334;3.244;2023-09-30T07:47:55;14.30;99.90
22813;DHT22;11573;51.334;3.244;2023-09-30T07:50:22;14.40;99.90
22813;DHT22;11573;51.334;3.244;2023-09-30T07:52:49;14.50;99.90
22813;DHT22;11573;51.334;3.244;2023-09-30T07:55:16;14.70;99.90
22813;DHT22;11573;51.334;3.244;2023-09-30T07:57:43;14.70;99.90
22813;DHT22;11573;51.334;3.244;2023-09-30T08:00:11;14.60;99.90
22813;DHT22;11573;51.334;3.244;2023-09-30T08:02:43;14.70;99.90
22813;DHT22;11573;51.334;3.244;2023-09-30T08:05:11;14.90;99.90
22813;DHT22;11573;51.334;3.244;2023-09-30T08:07:38;14.90;99.90
22813;DHT22;11573;51.334;3.244;2023-09-30T08:10:06;14.90;99.90
22813;DHT22;11573;51.334;3.244;2023-09-30T08:12:39;15.00;99.90
22813;DHT22;11573;51.334;3.244;2023-09-30T08:15:07;15.10;99.90
22813;DHT22;11573;51.334;3.244;2023-09-30T08:17:35;15.20;99.90
22813;DHT22;11573;51.334;3.244;2023-09-30T08:20:02;15.40;99.90
22813;DHT22;11573;51.334;3.244;2023-09-30T08:22:31;15.50;99.90
22813;DHT22;11573;51.334;3.244;2023-09-30T08:24:58;15.70;99.90
22813;DHT22;11573;51.334;3.244;2023-09-30T08:27:26;15.70;99.90
22813;DHT22;11573;51.334;3.244;2023-09-30T08:29:53;15.80;99.90
22813;DHT22;11573;51.334;3.244;2023-09-30T08:32:20;15.90;99.90
22813;DHT22;11573;51.334;3.244;2023-09-30T08:34:47;16.00;99.90
22813;DHT22;11573;51.334;3.244;2023-09-30T08:37:15;16.10;99.90
22813;DHT22;11573;51.334;3.244;2023-09-30T08:39:41;16.20;99.90
22813;DHT22;11573;51.334;3.244;2023-09-30T08:42:10;16.30;99.90
22813;DHT22;11573;51.334;3.244;2023-09-30T08:44:41;16.20;99.90
22813;DHT22;11573;51.334;3.244;2023-09-30T08:47:08;16.30;99.90
22813;DHT22;11573;51.334;3.244;2023-09-30T08:49:38;16.30;99.90
22813;DHT22;11573;51.334;3.244;2023-09-30T08:52:10;16.40;99.90
22813;DHT22;11573;51.334;3.244;2023-09-30T08:54:40;16.60;99.90
22813;DHT22;11573;51.334;3.244;2023-09-30T08:57:09;16.70;99.90
22813;DHT22;11573;51.334;3.244;2023-09-30T08:59:38;16.60;99.90
22813;DHT22;11573;51.334;3.244;2023-09-30T09:02:08;16.70;99.90
22813;DHT22;11573;51.334;3.244;2023-09-30T09:04:39;16.90;99.90
22813;DHT22;11573;51.334;3.244;2023-09-30T09:07:07;17.00;99.90
22813;DHT22;11573;51.334;3.244;2023-09-30T09:09:34;17.00;99.90
22813;DHT22;11573;51.334;3.244;2023-09-30T09:12:01;17.10;99.90
22813;DHT22;11573;51.334;3.244;2023-09-30T09:14:39;17.30;99.90
22813;DHT22;11573;51.334;3.244;2023-09-30T09:17:08;17.40;99.90
22813;DHT22;11573;51.334;3.244;2023-09-30T09:19:35;17.50;99.90
22813;DHT22;11573;51.334;3.244;2023-09-30T09:22:03;17.60;99.90
22813;DHT22;11573;51.334;3.244;2023-09-30T09:24:35;17.70;99.90
22813;DHT22;11573;51.334;3.244;2023-09-30T09:27:10;17.70;99.90
22813;DHT22;11573;51.334;3.244;2023-09-30T09:29:39;17.80;99.90
22813;DHT22;11573;51.334;3.244;2023-09-30T09:34:38;17.90;99.90
22813;DHT22;11573;51.334;3.244;2023-09-30T09:39:55;17.90;99.90
22813;DHT22;11573;51.334;3.244;2023-09-30T09:42:32;18.00;99.90
22813;DHT22;11573;51.334;3.244;2023-09-30T09:45:05;18.00;99.90
22813;DHT22;11573;51.334;3.244;2023-09-30T09:47:33;18.10;99.90
22813;DHT22;11573;51.334;3.244;2023-09-30T09:50:03;18.20;99.90
22813;DHT22;11573;51.334;3.244;2023-09-30T09:52:34;18.30;99.90
22813;DHT22;11573;51.334;3.244;2023-09-30T09:55:02;18.30;99.90
22813;DHT22;11573;51.334;3.244;2023-09-30T09:57:31;18.30;99.90
22813;DHT22;11573;51.334;3.244;2023-09-30T09:59:59;18.40;99.90
22813;DHT22;11573;51.334;3.244;2023-09-30T10:02:27;18.60;99.90
22813;DHT22;11573;51.334;3.244;2023-09-30T10:04:56;18.60;99.90
22813;DHT22;11573;51.334;3.244;2023-09-30T10:07:34;18.60;99.90
22813;DHT22;11573;51.334;3.244;2023-09-30T10:10:06;18.60;99.90
22813;DHT22;11573;51.334;3.244;2023-09-30T10:12:38;18.70;99.90
22813;DHT22;11573;51.334;3.244;2023-09-30T10:20:44;19.00;99.90
22813;DHT22;11573;51.334;3.244;2023-09-30T10:23:28;19.10;99.90
22813;DHT22;11573;51.334;3.244;2023-09-30T10:28:47;19.10;99.90
22813;DHT22;11573;51.334;3.244;2023-09-30T10:31:18;19.00;99.90
22813;DHT22;11573;51.334;3.244;2023-09-30T10:36:39;19.20;99.90
22813;DHT22;11573;51.334;3.244;2023-09-30T10:50:54;19.80;99.90
22813;DHT22;11573;51.334;3.244;2023-09-30T10:53:22;19.90;99.90
22813;DHT22;11573;51.334;3.244;2023-09-30T10:55:57;19.90;99.90
22813;DHT22;11573;51.334;3.244;2023-09-30T10:58:45;20.00;99.90
22813;DHT22;11573;51.334;3.244;2023-09-30T11:01:15;20.20;99.90
22813;DHT22;11573;51.334;3.244;2023-09-30T11:03:45;20.30;99.90
22813;DHT22;11573;51.334;3.244;2023-09-30T11:06:14;20.30;99.90
22813;DHT22;11573;51.334;3.244;2023-09-30T11:08:51;20.40;99.90
22813;DHT22;11573;51.334;3.244;2023-09-30T11:11:18;20.30;99.90
22813;DHT22;11573;51.334;3.244;2023-09-30T11:13:46;20.20;99.90
22813;DHT22;11573;51.334;3.244;2023-09-30T11:16:13;20.60;99.90
22813;DHT22;11573;51.334;3.244;2023-09-30T11:18:40;20.60;99.90
22813;DHT22;11573;51.334;3.244;2023-09-30T11:21:12;20.50;99.90
22813;DHT22;11573;51.334;3.244;2023-09-30T11:23:41;20.20;99.90
22813;DHT22;11573;51.334;3.244;2023-09-30T11:26:08;20.00;99.90
22813;DHT22;11573;51.334;3.244;2023-09-30T11:28:41;20.10;99.90
22813;DHT22;11573;51.334;3.244;2023-09-30T11:31:13;20.50;99.90
22813;DHT22;11573;51.334;3.244;2023-09-30T11:33:53;20.70;99.90
22813;DHT22;11573;51.334;3.244;2023-09-30T11:36:21;20.50;99.90
22813;DHT22;11573;51.334;3.244;2023-09-30T11:38:51;20.30;99.90
22813;DHT22;11573;51.334;3.244;2023-09-30T11:41:22;20.40;99.90
22813;DHT22;11573;51.334;3.244;2023-09-30T11:46:32;20.30;99.90
22813;DHT22;11573;51.334;3.244;2023-09-30T11:49:04;20.40;99.90
22813;DHT22;11573;51.334;3.244;2023-09-30T11:51:42;20.30;99.90
22813;DHT22;11573;51.334;3.244;2023-09-30T11:54:14;20.30;99.90
22813;DHT22;11573;51.334;3.244;2023-09-30T11:56:41;20.60;99.90
22813;DHT22;11573;51.334;3.244;2023-09-30T11:59:09;20.70;99.90
22813;DHT22;11573;51.334;3.244;2023-09-30T12:01:37;20.70;99.90
22813;DHT22;11573;51.334;3.244;2023-09-30T12:04:05;20.70;99.90
22813;DHT22;11573;51.334;3.244;2023-09-30T12:06:33;20.80;99.90
22813;DHT22;11573;51.334;3.244;2023-09-30T12:09:01;20.70;99.90
22813;DHT22;11573;51.334;3.244;2023-09-30T12:11:29;20.70;99.90
22813;DHT22;11573;51.334;3.244;2023-09-30T12:13:56;21.00;99.90
22813;DHT22;11573;51.334;3.244;2023-09-30T12:16:23;21.20;99.90
22813;DHT22;11573;51.334;3.244;2023-09-30T12:18:51;21.40;99.90
22813;DHT22;11573;51.334;3.244;2023-09-30T12:21:18;21.10;99.90
22813;DHT22;11573;51.334;3.244;2023-09-30T12:23:47;21.20;99.90
22813;DHT22;11573;51.334;3.244;2023-09-30T12:26:15;21.20;99.90
22813;DHT22;11573;51.334;3.244;2023-09-30T12:28:44;21.20;99.90
22813;DHT22;11573;51.334;3.244;2023-09-30T12:31:11;21.00;99.90
22813;DHT22;11573;51.334;3.244;2023-09-30T12:33:40;21.00;99.90
22813;DHT22;11573;51.334;3.244;2023-09-30T12:36:07;21.40;99.90
22813;DHT22;11573;51.334;3.244;2023-09-30T12:38:34;21.40;99.90
22813;DHT22;11573;51.334;3.244;2023-09-30T12:41:01;21.40;99.90
22813;DHT22;11573;51.334;3.244;2023-09-30T12:43:30;21.20;99.90
22813;DHT22;11573;51.334;3.244;2023-09-30T12:45:57;21.00;99.90
22813;DHT22;11573;51.334;3.244;2023-09-30T12:48:24;20.90;99.90
22813;DHT22;11573;51.334;3.244;2023-09-30T12:50:51;20.60;99.90
22813;DHT22;11573;51.334;3.244;2023-09-30T12:53:19;20.50;99.90
22813;DHT22;11573;51.334;3.244;2023-09-30T12:55:46;20.80;99.90
22813;DHT22;11573;51.334;3.244;2023-09-30T12:58:13;21.20;99.90
22813;DHT22;11573;51.334;3.244;2023-09-30T13:00:39;21.60;99.90
22813;DHT22;11573;51.334;3.244;2023-09-30T13:03:07;21.70;99.90
22813;DHT22;11573;51.334;3.244;2023-09-30T13:05:34;21.50;99.90
22813;DHT22;11573;51.334;3.244;2023-09-30T13:08:01;21.10;99.90
22813;DHT22;11573;51.334;3.244;2023-09-30T13:10:28;20.90;99.90
22813;DHT22;11573;51.334;3.244;2023-09-30T13:12:57;20.90;99.90
22813;DHT22;11573;51.334;3.244;2023-09-30T13:15:24;21.10;99.90
22813;DHT22;11573;51.334;3.244;2023-09-30T13:17:53;21.30;99.90
22813;DHT22;11573;51.334;3.244;2023-09-30T13:20:20;21.30;99.90
22813;DHT22;11573;51.334;3.244;2023-09-30T13:22:47;21.30;99.90
22813;DHT22;11573;51.334;3.244;2023-09-30T13:25:15;21.30;99.90
22813;DHT22;11573;51.334;3.244;2023-09-30T13:27:43;21.60;99.90
22813;DHT22;11573;51.334;3.244;2023-09-30T13:30:10;21.70;99.90
22813;DHT22;11573;51.334;3.244;2023-09-30T13:32:37;21.40;99.90
22813;DHT22;11573;51.334;3.244;2023-09-30T13:35:05;21.20;99.90
22813;DHT22;11573;51.334;3.244;2023-09-30T13:37:33;21.30;99.90
22813;DHT22;11573;51.334;3.244;2023-09-30T13:40:01;21.20;99.90
22813;DHT22;11573;51.334;3.244;2023-09-30T13:42:28;21.50;99.90
22813;DHT22;11573;51.334;3.244;2023-09-30T13:44:56;22.00;99.90
22813;DHT22;11573;51.334;3.244;2023-09-30T13:47:26;22.40;99.90
22813;DHT22;11573;51.334;3.244;2023-09-30T13:49:53;22.30;99.90
22813;DHT22;11573;51.334;3.244;2023-09-30T13:52:20;22.30;99.90
22813;DHT22;11573;51.334;3.244;2023-09-30T13:54:47;22.20;99.90
22813;DHT22;11573;51.334;3.244;2023-09-30T13:57:14;21.90;99.90
22813;DHT22;11573;51.334;3.244;2023-09-30T13:59:41;21.90;99.90
22813;DHT22;11573;51.334;3.244;2023-09-30T14:02:11;21.70;99.90
22813;DHT22;11573;51.334;3.244;2023-09-30T14:04:39;21.50;99.90
22813;DHT22;11573;51.334;3.244;2023-09-30T14:07:06;21.30;99.90
22813;DHT22;11573;51.334;3.244;2023-09-30T14:09:34;21.20;99.90
22813;DHT22;11573;51.334;3.244;2023-09-30T14:12:03;21.30;99.90
22813;DHT22;11573;51.334;3.244;2023-09-30T14:14:34;21.30;99.90
22813;DHT22;11573;51.334;3.244;2023-09-30T14:17:01;21.30;99.90
22813;DHT22;11573;51.334;3.244;2023-09-30T14:19:34;21.50;99.90
22813;DHT22;11573;51.334;3.244;2023-09-30T14:22:01;21.60;99.90
22813;DHT22;11573;51.334;3.244;2023-09-30T14:24:31;21.40;99.90
22813;DHT22;11573;51.334;3.244;2023-09-30T14:27:03;21.10;99.90
22813;DHT22;11573;51.334;3.244;2023-09-30T14:29:31;21.40;99.90
22813;DHT22;11573;51.334;3.244;2023-09-30T14:31:59;21.40;99.90
22813;DHT22;11573;51.334;3.244;2023-09-30T14:34:26;21.20;99.90
22813;DHT22;11573;51.334;3.244;2023-09-30T14:36:54;21.20;99.90
22813;DHT22;11573;51.334;3.244;2023-09-30T14:39:22;21.20;99.90
22813;DHT22;11573;51.334;3.244;2023-09-30T14:41:50;21.10;99.90
22813;DHT22;11573;51.334;3.244;2023-09-30T14:44:17;21.40;99.90
22813;DHT22;11573;51.334;3.244;2023-09-30T14:46:44;21.20;99.90
22813;DHT22;11573;51.334;3.244;2023-09-30T14:49:12;21.10;99.90
22813;DHT22;11573;51.334;3.244;2023-09-30T14:51:39;21.10;99.90
22813;DHT22;11573;51.334;3.244;2023-09-30T14:54:07;21.30;99.90
22813;DHT22;11573;51.334;3.244;2023-09-30T14:56:34;21.20;99.90
22813;DHT22;11573;51.334;3.244;2023-09-30T14:59:02;21.60;99.90
22813;DHT22;11573;51.334;3.244;2023-09-30T15:01:33;21.70;99.90
22813;DHT22;11573;51.334;3.244;2023-09-30T15:04:01;21.80;99.90
22813;DHT22;11573;51.334;3.244;2023-09-30T15:06:29;21.80;99.90
22813;DHT22;11573;51.334;3.244;2023-09-30T15:08:56;21.70;99.90
22813;DHT22;11573;51.334;3.244;2023-09-30T15:11:24;21.40;99.90
22813;DHT22;11573;51.334;3.244;2023-09-30T15:13:51;21.20;99.90
22813;DHT22;11573;51.334;3.244;2023-09-30T15:16:20;21.50;99.90
22813;DHT22;11573;51.334;3.244;2023-09-30T15:18:48;21.60;99.90
22813;DHT22;11573;51.334;3.244;2023-09-30T15:21:16;21.60;99.90
22813;DHT22;11573;51.334;3.244;2023-09-30T15:23:43;21.70;99.90
22813;DHT22;11573;51.334;3.244;2023-09-30T15:26:10;21.70;99.90
22813;DHT22;11573;51.334;3.244;2023-09-30T15:28:37;21.80;99.90
22813;DHT22;11573;51.334;3.244;2023-09-30T15:31:06;21.70;99.90
22813;DHT22;11573;51.334;3.244;2023-09-30T15:33:37;21.70;99.90
22813;DHT22;11573;51.334;3.244;2023-09-30T15:36:15;21.80;99.90
22813;DHT22;11573;51.334;3.244;2023-09-30T15:38:47;21.60;99.90
22813;DHT22;11573;51.334;3.244;2023-09-30T15:41:15;21.50;99.90
22813;DHT22;11573;51.334;3.244;2023-09-30T15:43:42;21.40;99.90
22813;DHT22;11573;51.334;3.244;2023-09-30T15:46:10;21.10;99.90
22813;DHT22;11573;51.334;3.244;2023-09-30T15:48:37;20.70;99.90
22813;DHT22;11573;51.334;3.244;2023-09-30T15:51:04;20.60;99.90
22813;DHT22;11573;51.334;3.244;2023-09-30T15:53:32;20.60;99.90
22813;DHT22;11573;51.334;3.244;2023-09-30T15:56:00;20.40;99.90
22813;DHT22;11573;51.334;3.244;2023-09-30T15:58:29;20.30;99.90
22813;DHT22;11573;51.334;3.244;2023-09-30T16:00:56;20.00;99.90
22813;DHT22;11573;51.334;3.244;2023-09-30T16:03:24;19.90;99.90
22813;DHT22;11573;51.334;3.244;2023-09-30T16:05:51;19.90;99.90
22813;DHT22;11573;51.334;3.244;2023-09-30T16:08:19;19.80;99.90